createdAt,value
2023-05-24T00:02:27.364Z,13.78
2023-05-24T00:04:54.173Z,13.89
2023-05-24T00:07:23.878Z,13.91
2023-05-24T00:09:52.826Z,13.99
2023-05-24T00:12:21.499Z,13.99
2023-05-24T00:14:48.035Z,14.02
2023-05-24T00:17:14.962Z,14.01
2023-05-24T00:19:41.499Z,13.93
2023-05-24T00:22:08.040Z,13.84
2023-05-24T00:24:34.619Z,13.83
2023-05-24T00:27:01.388Z,13.66
2023-05-24T00:29:30.786Z,13.68
2023-05-24T00:31:58.776Z,13.62
2023-05-24T00:34:25.371Z,13.59
2023-05-24T00:36:54.936Z,13.42
2023-05-24T00:39:24.562Z,13.40
2023-05-24T00:41:52.308Z,13.42
2023-05-24T00:44:18.834Z,13.56
2023-05-24T00:46:45.601Z,13.66
2023-05-24T00:49:12.379Z,13.54
2023-05-24T00:51:39.055Z,13.59
2023-05-24T00:54:06.933Z,13.44
2023-05-24T00:56:33.864Z,13.27
2023-05-24T00:59:01.954Z,12.96
2023-05-24T01:01:31.271Z,12.83
2023-05-24T01:03:59.565Z,12.83
2023-05-24T01:06:28.135Z,12.97
2023-05-24T01:09:08.845Z,12.90
2023-05-24T01:11:44.581Z,12.91
2023-05-24T01:14:14.398Z,13.02
2023-05-24T01:16:53.837Z,12.97
2023-05-24T01:19:46.934Z,13.03
2023-05-24T01:22:28.170Z,13.10
2023-05-24T01:25:33.334Z,13.03
2023-05-24T01:28:00.926Z,12.91
2023-05-24T01:30:28.801Z,12.80
2023-05-24T01:32:58.364Z,12.77
2023-05-24T01:35:28.124Z,12.55
2023-05-24T01:37:58.147Z,12.19
2023-05-24T01:40:28.124Z,12.17
2023-05-24T01:43:08.816Z,12.16
2023-05-24T01:46:03.393Z,12.37
2023-05-24T01:49:11.244Z,12.36
2023-05-24T01:51:44.268Z,12.28
2023-05-24T01:54:13.454Z,12.30
2023-05-24T01:56:42.758Z,12.49
2023-05-24T01:59:09.784Z,12.53
2023-05-24T02:01:36.552Z,12.69
2023-05-24T02:04:03.738Z,12.59
2023-05-24T02:06:30.492Z,12.64
2023-05-24T02:09:00.184Z,12.69
2023-05-24T02:11:29.833Z,12.76
2023-05-24T02:13:59.172Z,12.80
2023-05-24T02:16:27.238Z,12.79
2023-05-24T02:18:54.023Z,12.57
2023-05-24T02:21:20.890Z,12.65
2023-05-24T02:23:47.445Z,12.64
2023-05-24T02:26:14.719Z,12.65
2023-05-24T02:28:41.428Z,12.67
2023-05-24T02:31:08.627Z,12.53
2023-05-24T02:33:37.442Z,12.69
2023-05-24T02:36:04.102Z,12.61
2023-05-24T02:38:31.937Z,12.69
2023-05-24T02:41:01.704Z,12.64
2023-05-24T02:43:31.349Z,12.70
2023-05-24T02:46:00.492Z,12.84
2023-05-24T02:48:29.297Z,12.88
2023-05-24T02:50:55.902Z,12.92
2023-05-24T02:53:22.462Z,12.87
2023-05-24T02:55:49.008Z,13.10
2023-05-24T02:58:17.687Z,13.07
2023-05-24T03:00:44.412Z,13.01
2023-05-24T03:03:11.124Z,13.05
2023-05-24T03:05:37.740Z,13.02
2023-05-24T03:08:04.335Z,13.06
2023-05-24T03:10:33.777Z,13.10
2023-05-24T03:13:03.469Z,13.08
2023-05-24T03:15:31.829Z,13.09
2023-05-24T03:17:58.364Z,13.13
2023-05-24T03:20:25.078Z,13.31
2023-05-24T03:22:51.654Z,13.23
2023-05-24T03:25:18.810Z,13.29
2023-05-24T03:27:45.701Z,13.28
2023-05-24T03:30:12.665Z,13.35
2023-05-24T03:32:39.259Z,13.32
2023-05-24T03:35:06.319Z,13.24
2023-05-24T03:37:32.878Z,13.27
2023-05-24T03:39:59.408Z,13.25
2023-05-24T03:42:25.983Z,13.31
2023-05-24T03:44:52.567Z,13.19
2023-05-24T03:47:19.121Z,13.25
2023-05-24T03:49:45.801Z,13.18
2023-05-24T03:52:12.405Z,13.27
2023-05-24T03:54:38.985Z,13.19
2023-05-24T03:57:05.836Z,13.09
2023-05-24T03:59:36.389Z,13.20
2023-05-24T04:02:06.004Z,13.22
2023-05-24T04:04:37.053Z,13.18
2023-05-24T04:07:08.058Z,13.18
2023-05-24T04:09:34.684Z,13.04
2023-05-24T04:12:01.302Z,13.13
2023-05-24T04:14:27.869Z,12.98
2023-05-24T04:16:55.274Z,12.88
2023-05-24T04:19:21.892Z,12.85
2023-05-24T04:21:49.949Z,12.76
2023-05-24T04:24:16.621Z,12.84
2023-05-24T04:26:43.186Z,12.82
2023-05-24T04:29:10.193Z,12.67
2023-05-24T04:31:36.924Z,12.80
2023-05-24T04:34:05.766Z,12.64
2023-05-24T04:36:35.506Z,12.73
2023-05-24T04:39:06.598Z,12.80
2023-05-24T04:41:35.859Z,12.67
2023-05-24T04:44:02.472Z,12.61
2023-05-24T04:46:29.108Z,12.59
2023-05-24T04:48:55.719Z,12.61
2023-05-24T04:51:22.667Z,12.80
2023-05-24T04:53:49.257Z,12.81
2023-05-24T04:56:17.041Z,12.95
2023-05-24T04:58:43.587Z,12.98
2023-05-24T05:01:10.370Z,12.99
2023-05-24T05:03:40.165Z,13.05
2023-05-24T05:06:10.524Z,13.21
2023-05-24T05:08:40.220Z,13.05
2023-05-24T05:11:09.979Z,13.15
2023-05-24T05:13:39.571Z,13.17
2023-05-24T05:16:09.434Z,13.21
2023-05-24T05:18:39.210Z,13.20
2023-05-24T05:21:08.866Z,13.28
2023-05-24T05:23:39.255Z,13.29
2023-05-24T05:26:11.712Z,13.31
2023-05-24T05:28:41.128Z,13.30
2023-05-24T05:31:08.961Z,13.46
2023-05-24T05:33:36.654Z,13.49
2023-05-24T05:36:03.640Z,13.58
2023-05-24T05:38:30.218Z,13.57
2023-05-24T05:40:56.736Z,13.67
2023-05-24T05:43:23.287Z,13.70
2023-05-24T05:45:49.804Z,13.85
2023-05-24T05:48:16.479Z,13.84
2023-05-24T05:50:43.111Z,13.87
2023-05-24T05:53:10.061Z,13.89
2023-05-24T05:55:36.734Z,13.81
2023-05-24T05:58:03.362Z,13.91
2023-05-24T06:00:30.017Z,13.93
2023-05-24T06:02:56.857Z,13.72
2023-05-24T06:05:23.481Z,13.80
2023-05-24T06:07:50.091Z,13.70
2023-05-24T06:10:16.874Z,13.54
2023-05-24T06:12:43.409Z,13.73
2023-05-24T06:15:14.175Z,13.80
2023-05-24T06:17:44.030Z,13.83
2023-05-24T06:20:16.994Z,13.80
2023-05-24T06:22:43.841Z,13.90
2023-05-24T06:25:19.107Z,13.88
2023-05-24T06:27:45.877Z,13.93
2023-05-24T06:30:13.589Z,13.98
2023-05-24T06:32:43.173Z,13.96
2023-05-24T06:35:12.779Z,14.12
2023-05-24T06:37:42.433Z,14.24
2023-05-24T06:40:14.853Z,14.35
2023-05-24T06:42:41.435Z,14.07
2023-05-24T06:45:10.777Z,14.09
2023-05-24T06:47:37.405Z,14.06
2023-05-24T06:50:05.045Z,14.19
2023-05-24T06:52:31.638Z,14.19
2023-05-24T06:54:58.153Z,14.26
2023-05-24T06:57:25.261Z,14.19
2023-05-24T06:59:52.008Z,14.33
2023-05-24T07:02:18.650Z,14.48
2023-05-24T07:04:46.128Z,14.59
2023-05-24T07:07:14.466Z,14.60
2023-05-24T07:09:42.474Z,14.79
2023-05-24T07:12:11.193Z,14.77
2023-05-24T07:14:40.425Z,14.83
2023-05-24T07:17:06.987Z,14.75
2023-05-24T07:19:35.890Z,14.75
2023-05-24T07:22:02.737Z,14.70
2023-05-24T07:24:29.485Z,14.74
2023-05-24T07:26:58.948Z,14.81
2023-05-24T07:29:26.151Z,14.89
2023-05-24T07:31:52.818Z,14.95
2023-05-24T07:34:21.221Z,15.04
2023-05-24T07:36:49.570Z,14.91
2023-05-24T07:39:16.672Z,14.97
2023-05-24T07:41:43.587Z,15.10
2023-05-24T07:44:13.822Z,15.27
2023-05-24T07:46:41.271Z,15.38
2023-05-24T07:49:10.520Z,15.55
2023-05-24T07:51:38.363Z,15.60
2023-05-24T07:54:05.877Z,15.69
2023-05-24T07:56:32.362Z,15.78
2023-05-24T07:59:04.988Z,15.80
2023-05-24T08:01:34.587Z,16.01
2023-05-24T08:04:04.185Z,15.98
2023-05-24T08:06:32.734Z,16.20
2023-05-24T08:08:59.370Z,16.31
2023-05-24T08:11:26.605Z,16.53
2023-05-24T08:13:53.209Z,16.62
2023-05-24T08:16:19.805Z,16.80
2023-05-24T08:18:46.370Z,16.98
2023-05-24T08:21:12.994Z,16.93
2023-05-24T08:23:42.544Z,16.95
2023-05-24T08:26:12.317Z,16.80
2023-05-24T08:28:42.044Z,16.46
2023-05-24T08:31:12.590Z,16.44
2023-05-24T08:33:43.038Z,16.45
2023-05-24T08:36:12.479Z,16.44
2023-05-24T08:38:42.014Z,16.59
2023-05-24T08:41:11.602Z,16.65
2023-05-24T08:43:39.663Z,16.91
2023-05-24T08:46:09.844Z,17.13
2023-05-24T08:48:45.183Z,17.10
2023-05-24T08:51:14.034Z,17.19
2023-05-24T08:53:42.086Z,17.38
2023-05-24T08:56:10.561Z,17.64
2023-05-24T08:58:47.250Z,17.96
2023-05-24T09:01:16.673Z,18.20
2023-05-24T09:03:45.319Z,18.30
2023-05-24T09:06:13.417Z,18.68
2023-05-24T09:08:43.745Z,18.99
2023-05-24T09:11:16.401Z,19.42
2023-05-24T09:13:45.640Z,19.74
2023-05-24T09:16:12.560Z,20.26
2023-05-24T09:18:42.838Z,20.74
2023-05-24T09:21:13.250Z,20.93
2023-05-24T09:23:43.305Z,20.91
2023-05-24T09:26:13.332Z,20.86
2023-05-24T09:28:42.084Z,20.58
2023-05-24T09:31:13.726Z,20.54
2023-05-24T09:33:43.026Z,21.00
2023-05-24T09:36:17.207Z,20.87
2023-05-24T09:38:43.747Z,20.83
2023-05-24T09:41:13.288Z,21.12
2023-05-24T09:43:58.289Z,21.39
2023-05-24T09:46:24.839Z,21.82
2023-05-24T09:48:58.399Z,22.38
2023-05-24T09:51:25.190Z,22.39
2023-05-24T09:53:54.517Z,22.70
2023-05-24T09:56:23.737Z,22.74
2023-05-24T09:58:51.583Z,23.03
2023-05-24T10:01:19.178Z,23.16
2023-05-24T10:03:57.470Z,23.04
2023-05-24T10:06:25.359Z,23.39
2023-05-24T10:08:54.377Z,24.03
2023-05-24T10:11:21.317Z,24.93
2023-05-24T10:13:49.035Z,25.62
2023-05-24T10:16:16.493Z,25.46
2023-05-24T10:18:43.013Z,24.75
2023-05-24T10:21:13.701Z,23.91
2023-05-24T10:23:45.058Z,23.65
2023-05-24T10:26:14.279Z,23.76
2023-05-24T10:28:53.132Z,23.68
2023-05-24T10:31:26.597Z,23.74
2023-05-24T10:34:04.085Z,23.48
2023-05-24T10:36:35.092Z,23.65
2023-05-24T10:39:01.958Z,23.63
2023-05-24T10:41:28.965Z,23.64
2023-05-24T10:44:09.247Z,23.96
2023-05-24T10:46:45.250Z,24.59
2023-05-24T10:49:13.829Z,25.26
2023-05-24T10:51:45.394Z,25.65
2023-05-24T10:54:14.198Z,26.07
2023-05-24T10:56:43.156Z,26.19
2023-05-24T10:59:23.022Z,26.60
2023-05-24T11:01:57.933Z,26.36
2023-05-24T11:04:25.170Z,26.41
2023-05-24T11:07:03.144Z,26.61
2023-05-24T11:09:30.191Z,26.51
2023-05-24T11:12:09.653Z,26.55
2023-05-24T11:14:48.124Z,26.96
2023-05-24T11:17:14.706Z,27.04
2023-05-24T11:19:54.741Z,26.57
2023-05-24T11:22:24.636Z,26.90
2023-05-24T11:24:53.238Z,27.12
2023-05-24T11:27:20.005Z,27.17
2023-05-24T11:29:48.343Z,26.89
2023-05-24T11:32:19.895Z,26.52
2023-05-24T11:34:47.555Z,26.40
2023-05-24T11:37:17.727Z,26.86
2023-05-24T11:39:51.220Z,26.84
2023-05-24T11:42:18.143Z,27.23
2023-05-24T11:44:48.496Z,27.29
2023-05-24T11:47:15.598Z,26.93
2023-05-24T11:49:50.315Z,27.21
2023-05-24T11:52:17.421Z,27.47
2023-05-24T11:54:44.115Z,27.64
2023-05-24T11:57:14.414Z,28.08
2023-05-24T11:59:43.984Z,28.28
2023-05-24T12:02:12.721Z,28.21
2023-05-24T12:04:39.333Z,28.07
2023-05-24T12:07:14.058Z,27.97
2023-05-24T12:09:43.236Z,28.48
2023-05-24T12:12:14.460Z,27.97
2023-05-24T12:14:42.322Z,27.10
2023-05-24T12:17:16.057Z,27.33
2023-05-24T12:19:48.644Z,27.76
2023-05-24T12:22:15.333Z,27.52
2023-05-24T12:24:43.486Z,27.55
2023-05-24T12:27:13.459Z,27.37
2023-05-24T12:29:41.975Z,27.69
2023-05-24T12:32:16.908Z,28.00
2023-05-24T12:34:45.342Z,28.22
2023-05-24T12:37:14.524Z,27.71
2023-05-24T12:39:45.295Z,27.77
2023-05-24T12:42:14.115Z,27.47
2023-05-24T12:44:40.992Z,27.73
2023-05-24T12:47:08.842Z,27.94
2023-05-24T12:49:36.004Z,27.91
2023-05-24T12:52:02.695Z,28.26
2023-05-24T12:54:29.967Z,29.00
2023-05-24T12:56:57.814Z,28.02
2023-05-24T12:59:25.592Z,27.97
2023-05-24T13:01:52.685Z,28.17
2023-05-24T13:04:22.121Z,28.65
2023-05-24T13:06:49.337Z,28.98
2023-05-24T13:09:20.782Z,28.99
2023-05-24T13:11:47.405Z,28.26
2023-05-24T13:14:18.152Z,27.85
2023-05-24T13:16:48.125Z,28.07
2023-05-24T13:19:17.866Z,28.28
2023-05-24T13:21:45.734Z,28.58
2023-05-24T13:24:17.941Z,28.65
2023-05-24T13:26:46.091Z,28.45
2023-05-24T13:31:47.153Z,28.28
2023-05-24T13:34:15.646Z,27.36
2023-05-24T13:36:45.844Z,27.18
2023-05-24T13:39:16.743Z,27.75
2023-05-24T13:41:45.453Z,28.44
2023-05-24T13:44:18.399Z,28.63
2023-05-24T13:46:46.062Z,28.64
2023-05-24T13:49:13.666Z,28.71
2023-05-24T13:51:40.628Z,28.91
2023-05-24T13:54:08.128Z,29.14
2023-05-24T13:56:35.929Z,29.08
2023-05-24T13:59:03.765Z,29.00
2023-05-24T14:01:31.267Z,28.71
2023-05-24T14:03:58.281Z,27.69
2023-05-24T14:06:24.925Z,27.69
2023-05-24T14:08:52.161Z,27.18
2023-05-24T14:11:19.699Z,27.69
2023-05-24T14:16:15.987Z,29.06
2023-05-24T14:18:44.511Z,28.98
2023-05-24T14:21:11.686Z,28.58
2023-05-24T14:23:38.873Z,27.85
2023-05-24T14:26:05.623Z,27.86
2023-05-24T14:28:32.117Z,27.89
2023-05-24T14:30:58.688Z,28.12
2023-05-24T14:33:25.214Z,27.69
2023-05-24T14:35:51.936Z,27.75
2023-05-24T14:38:18.629Z,27.87
2023-05-24T14:40:48.074Z,28.16
2023-05-24T14:43:15.530Z,28.32
2023-05-24T14:45:42.865Z,27.36
2023-05-24T14:48:11.755Z,27.06
2023-05-24T14:50:40.088Z,26.44
2023-05-24T14:53:12.033Z,26.33
2023-05-24T14:55:41.100Z,26.70
2023-05-24T14:58:09.247Z,27.24
2023-05-24T15:00:36.629Z,26.76
2023-05-24T15:03:03.534Z,25.91
2023-05-24T15:05:30.230Z,24.70
2023-05-24T15:07:56.881Z,24.25
2023-05-24T15:10:23.454Z,24.64
2023-05-24T15:12:51.914Z,25.12
2023-05-24T15:15:19.087Z,25.72
2023-05-24T15:17:48.485Z,26.19
2023-05-24T15:20:19.589Z,26.41
2023-05-24T15:22:46.381Z,26.80
2023-05-24T15:25:15.343Z,26.48
2023-05-24T15:27:41.859Z,26.04
2023-05-24T15:30:08.507Z,25.82
2023-05-24T15:32:35.189Z,26.14
2023-05-24T15:35:01.854Z,26.19
2023-05-24T15:37:28.550Z,26.38
2023-05-24T15:39:55.094Z,26.40
2023-05-24T15:42:23.566Z,26.59
2023-05-24T15:44:50.610Z,26.27
2023-05-24T15:47:17.572Z,26.50
2023-05-24T15:49:45.781Z,26.66
2023-05-24T15:52:14.985Z,26.50
2023-05-24T15:54:46.682Z,25.73
2023-05-24T15:57:16.572Z,25.15
2023-05-24T15:59:45.195Z,24.64
2023-05-24T16:02:11.743Z,24.62
2023-05-24T16:04:38.883Z,24.69
2023-05-24T16:07:06.345Z,25.13
2023-05-24T16:09:32.859Z,24.72
2023-05-24T16:12:00.932Z,24.43
2023-05-24T16:14:27.774Z,24.11
2023-05-24T16:16:58.578Z,24.19
2023-05-24T16:19:25.775Z,24.57
2023-05-24T16:21:52.315Z,24.26
2023-05-24T16:24:19.660Z,24.05
2023-05-24T16:26:46.396Z,23.58
2023-05-24T16:29:15.082Z,23.31
2023-05-24T16:31:41.706Z,23.47
2023-05-24T16:34:08.245Z,23.12
2023-05-24T16:36:34.792Z,22.93
2023-05-24T16:39:01.322Z,22.99
2023-05-24T16:41:34.661Z,22.85
2023-05-24T16:44:01.164Z,22.77
2023-05-24T16:46:27.732Z,22.64
2023-05-24T16:48:54.289Z,22.54
2023-05-24T16:51:20.885Z,22.33
2023-05-24T16:53:50.870Z,22.25
2023-05-24T16:56:20.398Z,22.11
2023-05-24T16:58:49.769Z,22.23
2023-05-24T17:01:19.472Z,22.52
2023-05-24T17:03:47.752Z,22.41
2023-05-24T17:06:14.328Z,22.66
2023-05-24T17:08:41.787Z,22.87
2023-05-24T17:11:08.302Z,23.09
2023-05-24T17:13:34.903Z,23.26
2023-05-24T17:16:03.565Z,23.26
2023-05-24T17:18:30.264Z,23.15
2023-05-24T17:20:58.668Z,23.02
2023-05-24T17:23:26.293Z,22.83
2023-05-24T17:25:55.408Z,22.40
2023-05-24T17:28:28.853Z,21.86
2023-05-24T17:30:59.832Z,21.66
2023-05-24T17:33:29.152Z,21.63
2023-05-24T17:35:56.918Z,21.27
2023-05-24T17:38:24.883Z,21.27
2023-05-24T17:40:56.799Z,21.31
2023-05-24T17:43:24.023Z,21.34
2023-05-24T17:45:51.117Z,21.04
2023-05-24T17:48:20.232Z,20.82
2023-05-24T17:50:49.473Z,20.41
2023-05-24T17:53:30.826Z,20.49
2023-05-24T17:55:58.298Z,20.38
2023-05-24T17:58:25.198Z,20.26
2023-05-24T18:00:51.955Z,20.10
2023-05-24T18:03:18.768Z,19.99
2023-05-24T18:05:49.135Z,19.83
2023-05-24T18:08:19.419Z,19.58
2023-05-24T18:10:48.663Z,19.40
2023-05-24T18:13:17.606Z,19.42
2023-05-24T18:15:44.635Z,19.32
2023-05-24T18:18:12.254Z,19.20
2023-05-24T18:20:39.566Z,19.18
2023-05-24T18:23:06.652Z,19.07
2023-05-24T18:25:33.410Z,19.08
2023-05-24T18:28:00.541Z,19.03
2023-05-24T18:30:55.751Z,18.76
2023-05-24T18:33:22.818Z,18.85
2023-05-24T18:35:56.568Z,18.71
2023-05-24T18:38:23.111Z,18.54
2023-05-24T18:40:49.602Z,18.39
2023-05-24T18:43:19.030Z,18.31
2023-05-24T18:45:50.138Z,18.19
2023-05-24T18:48:19.620Z,18.09
2023-05-24T18:50:50.184Z,18.04
2023-05-24T18:53:19.579Z,18.12
2023-05-24T18:55:49.737Z,18.01
2023-05-24T18:58:19.378Z,17.85
2023-05-24T19:00:50.414Z,17.77
2023-05-24T19:03:22.372Z,17.62
2023-05-24T19:05:49.446Z,17.62
2023-05-24T19:08:19.661Z,17.66
2023-05-24T19:10:49.194Z,17.40
2023-05-24T19:13:19.464Z,17.33
2023-05-24T19:15:48.837Z,17.32
2023-05-24T19:18:17.579Z,17.22
2023-05-24T19:20:44.413Z,17.13
2023-05-24T19:23:11.057Z,16.98
2023-05-24T19:25:41.977Z,16.92
2023-05-24T19:28:08.873Z,16.93
2023-05-24T19:30:36.869Z,16.74
2023-05-24T19:33:03.726Z,16.64
2023-05-24T19:35:30.372Z,16.49
2023-05-24T19:37:56.889Z,16.50
2023-05-24T19:40:23.491Z,16.62
2023-05-24T19:42:50.140Z,16.40
2023-05-24T19:45:19.756Z,16.32
2023-05-24T19:47:49.196Z,16.22
2023-05-24T19:50:19.296Z,16.20
2023-05-24T19:52:48.555Z,16.14
2023-05-24T19:55:17.980Z,16.18
2023-05-24T19:57:46.942Z,15.92
2023-05-24T20:00:13.960Z,16.08
2023-05-24T20:02:40.665Z,15.99
2023-05-24T20:05:07.681Z,16.01
2023-05-24T20:07:34.206Z,15.95
2023-05-24T20:10:01.161Z,15.63
2023-05-24T20:12:28.527Z,15.61
2023-05-24T20:14:55.060Z,15.52
2023-05-24T20:17:21.611Z,15.45
2023-05-24T20:19:48.170Z,15.38
2023-05-24T20:22:16.801Z,15.29
2023-05-24T20:24:43.420Z,15.31
2023-05-24T20:27:09.943Z,15.31
2023-05-24T20:29:36.877Z,15.33
2023-05-24T20:32:03.621Z,15.32
2023-05-24T20:34:30.751Z,15.23
2023-05-24T20:36:57.348Z,15.23
2023-05-24T20:39:23.939Z,15.24
2023-05-24T20:41:50.678Z,15.12
2023-05-24T20:44:17.948Z,15.14
2023-05-24T20:46:44.444Z,15.14
2023-05-24T20:49:11.185Z,15.11
2023-05-24T20:51:37.735Z,15.13
2023-05-24T20:54:04.512Z,15.06
2023-05-24T20:56:30.987Z,15.13
2023-05-24T20:58:59.877Z,15.03
2023-05-24T21:01:27.000Z,15.22
2023-05-24T21:03:53.569Z,15.27
2023-05-24T21:06:22.822Z,15.30
2023-05-24T21:08:49.396Z,15.31
2023-05-24T21:11:16.372Z,15.22
2023-05-24T21:13:42.898Z,15.32
2023-05-24T21:16:11.988Z,15.34
2023-05-24T21:18:39.114Z,15.31
2023-05-24T21:21:06.518Z,15.26
2023-05-24T21:23:33.035Z,15.22
2023-05-24T21:25:59.570Z,15.31
2023-05-24T21:28:27.196Z,15.35
2023-05-24T21:30:53.740Z,15.24
2023-05-24T21:33:20.568Z,15.25
2023-05-24T21:35:49.280Z,15.09
2023-05-24T21:38:15.843Z,15.14
2023-05-24T21:40:42.464Z,15.09
2023-05-24T21:43:12.490Z,15.05
2023-05-24T21:45:39.497Z,14.89
2023-05-24T21:48:06.459Z,14.77
2023-05-24T21:50:34.334Z,14.68
2023-05-24T21:53:02.055Z,14.61
2023-05-24T21:55:29.591Z,14.75
2023-05-24T21:57:56.922Z,14.78
2023-05-24T22:00:23.565Z,14.80
2023-05-24T22:02:51.062Z,14.72
2023-05-24T22:05:20.600Z,14.68
2023-05-24T22:07:47.170Z,14.69
2023-05-24T22:10:13.765Z,14.61
2023-05-24T22:12:40.457Z,14.48
2023-05-24T22:15:07.586Z,14.39
2023-05-24T22:17:36.997Z,14.43
2023-05-24T22:20:06.042Z,14.25
2023-05-24T22:22:32.721Z,14.32
2023-05-24T22:25:02.293Z,14.23
2023-05-24T22:27:29.586Z,14.22
2023-05-24T22:29:56.245Z,14.04
2023-05-24T22:32:23.223Z,14.04
2023-05-24T22:34:52.275Z,13.92
2023-05-24T22:37:19.163Z,13.79
2023-05-24T22:39:45.746Z,13.77
2023-05-24T22:42:12.315Z,13.75
2023-05-24T22:44:38.865Z,13.68
2023-05-24T22:47:05.839Z,13.57
2023-05-24T22:49:34.146Z,13.50
2023-05-24T22:52:01.006Z,13.32
2023-05-24T22:54:27.588Z,13.17
2023-05-24T22:56:54.118Z,13.05
2023-05-24T22:59:20.657Z,13.04
2023-05-24T23:01:47.359Z,13.00
2023-05-24T23:04:20.948Z,12.92
2023-05-24T23:06:49.416Z,12.99
2023-05-24T23:09:17.582Z,12.97
2023-05-24T23:11:44.450Z,13.01
2023-05-24T23:14:11.367Z,12.98
2023-05-24T23:16:45.420Z,12.93
2023-05-24T23:19:18.252Z,13.15
2023-05-24T23:21:45.228Z,13.09
2023-05-24T23:24:14.605Z,13.10
2023-05-24T23:26:41.964Z,13.17
2023-05-24T23:29:08.963Z,13.15
2023-05-24T23:31:35.949Z,13.22
2023-05-24T23:34:02.746Z,13.18
2023-05-24T23:36:29.244Z,13.16
2023-05-24T23:38:56.226Z,13.14
2023-05-24T23:41:22.747Z,13.14
2023-05-24T23:43:49.379Z,13.31
2023-05-24T23:46:17.112Z,13.30
2023-05-24T23:48:43.774Z,13.22
2023-05-24T23:51:10.588Z,13.23
2023-05-24T23:53:37.130Z,13.24
2023-05-24T23:56:03.839Z,13.26
2023-05-24T23:58:30.409Z,13.10
